Minturn, Arkansas
Current Conditions -  °F | °C
As of 8:15 AM on Wednesday 26 Nov 2014 (Local Time) from KARG Reporting Station
Broken Clouds Broken Clouds  
Wind Chill: 28°   Ceiling: 9500
Heat Index: 36°   Visibility: 1mi
Dew Point: 27°   Wind: 10mph
Humidity: 70%   Direction: 160°SSE
Pressure: 30.06"   Gusts: NA
Location:  35.97°N, 91.03°W
Report Text: KARG 261415Z AUTO 16009KT 1SM BKN095 BKN120 02/M03 A3006 RMK AO1
Loading
Personal Weather Stations






























Interactive Weather Map New forecast layout! Learn more

10-Day Weather Forecast

Advertisements
Track Severe Weather on mobile